createdAt,value
2018-04-16T00:00:59.835Z,35.60
2018-04-16T00:03:27.324Z,36.27
2018-04-16T00:05:54.296Z,35.27
2018-04-16T00:08:21.156Z,37.50
2018-04-16T00:10:49.024Z,37.33
2018-04-16T00:13:16.663Z,38.00
2018-04-16T00:15:43.557Z,38.33
2018-04-16T00:18:10.614Z,37.80
2018-04-16T00:20:37.548Z,37.83
2018-04-16T00:23:04.492Z,38.73
2018-04-16T00:25:31.534Z,46.20
2018-04-16T00:27:58.472Z,42.33
2018-04-16T00:30:25.474Z,38.57
2018-04-16T00:32:58.547Z,35.53
2018-04-16T00:35:31.412Z,35.87
2018-04-16T00:38:04.409Z,38.23
2018-04-16T00:40:37.231Z,37.07
2018-04-16T00:43:10.193Z,36.37
2018-04-16T00:45:43.189Z,35.43
2018-04-16T00:48:16.417Z,36.77
2018-04-16T00:50:50.001Z,34.40
2018-04-16T00:53:22.865Z,33.33
2018-04-16T00:55:55.870Z,34.37
2018-04-16T00:58:28.976Z,33.80
2018-04-16T01:01:01.940Z,35.33
2018-04-16T01:03:35.043Z,34.10
2018-04-16T01:06:07.990Z,35.80
2018-04-16T01:08:40.984Z,34.40
2018-04-16T01:11:13.920Z,36.17
2018-04-16T01:13:46.804Z,36.77
2018-04-16T01:16:19.666Z,40.43
2018-04-16T01:18:52.925Z,38.77
2018-04-16T01:21:25.821Z,37.10
2018-04-16T01:23:58.871Z,34.70
2018-04-16T01:26:32.733Z,34.67
2018-04-16T01:29:05.809Z,35.50
2018-04-16T01:31:38.840Z,36.07
2018-04-16T01:34:12.117Z,34.20
2018-04-16T01:36:44.896Z,38.50
2018-04-16T01:39:17.770Z,36.07
2018-04-16T01:41:50.587Z,34.13
2018-04-16T01:44:23.464Z,33.87
2018-04-16T01:46:56.480Z,33.57
2018-04-16T01:49:29.502Z,34.30
2018-04-16T01:52:02.434Z,31.40
2018-04-16T01:54:35.426Z,32.97
2018-04-16T01:57:08.344Z,37.03
2018-04-16T01:59:42.115Z,35.17
2018-04-16T02:02:15.088Z,32.83
2018-04-16T02:04:48.089Z,32.73
2018-04-16T02:07:21.068Z,35.90
2018-04-16T02:09:54.108Z,33.50
2018-04-16T02:12:27.862Z,32.50
2018-04-16T02:15:00.995Z,32.80
2018-04-16T02:17:34.702Z,32.57
2018-04-16T02:23:08.042Z,31.77
2018-04-16T02:25:41.262Z,33.73
2018-04-16T02:28:14.310Z,32.10
2018-04-16T02:30:47.264Z,32.40
2018-04-16T02:33:20.226Z,32.37
2018-04-16T02:35:53.145Z,29.67
2018-04-16T02:41:27.692Z,30.57
2018-04-16T02:44:00.677Z,27.87
2018-04-16T02:46:33.541Z,30.60
2018-04-16T02:49:06.510Z,29.30
2018-04-16T02:51:39.616Z,29.17
2018-04-16T02:54:13.489Z,29.60
2018-04-16T02:56:46.668Z,28.10
2018-04-16T02:59:20.418Z,30.07
2018-04-16T03:01:53.572Z,30.93
2018-04-16T03:04:26.482Z,29.57
2018-04-16T03:06:59.544Z,28.73
2018-04-16T03:09:33.100Z,32.73
2018-04-16T03:12:06.193Z,28.43
2018-04-16T03:14:39.108Z,28.70
2018-04-16T03:17:12.464Z,31.97
2018-04-16T03:19:45.294Z,30.63
2018-04-16T03:22:19.218Z,30.63
2018-04-16T03:24:52.885Z,28.67
2018-04-16T03:27:25.794Z,32.57
2018-04-16T03:29:58.785Z,33.40
2018-04-16T03:32:32.602Z,32.97
2018-04-16T03:35:05.488Z,33.80
2018-04-16T03:37:39.285Z,35.80
2018-04-16T03:40:12.113Z,32.87
2018-04-16T03:42:45.216Z,36.00
2018-04-16T03:45:18.281Z,34.00
2018-04-16T03:47:51.194Z,30.90
2018-04-16T03:50:24.239Z,30.30
2018-04-16T03:52:58.108Z,30.93
2018-04-16T03:55:28.005Z,37.67
2018-04-16T03:57:55.651Z,32.20
2018-04-16T04:00:22.771Z,43.97
2018-04-16T04:02:50.441Z,35.40
2018-04-16T04:05:18.118Z,33.13
2018-04-16T04:07:45.059Z,39.20
2018-04-16T04:10:11.940Z,40.20
2018-04-16T04:12:38.848Z,35.33
2018-04-16T04:15:05.801Z,32.97
2018-04-16T04:17:32.697Z,36.87
2018-04-16T04:19:59.571Z,38.77
2018-04-16T04:22:45.845Z,35.23
2018-04-16T04:25:31.159Z,36.33
2018-04-16T04:28:17.220Z,31.07
2018-04-16T04:30:44.208Z,31.80
2018-04-16T04:33:11.121Z,33.77
2018-04-16T04:35:38.038Z,35.93
2018-04-16T04:38:04.915Z,35.40
2018-04-16T04:40:31.796Z,36.40
2018-04-16T04:42:58.820Z,33.00
2018-04-16T04:45:26.504Z,37.67
2018-04-16T04:47:53.373Z,40.53
2018-04-16T04:50:20.318Z,35.17
2018-04-16T04:52:47.294Z,32.30
2018-04-16T04:55:14.506Z,37.90
2018-04-16T04:57:41.476Z,39.97
2018-04-16T05:00:08.412Z,34.10
2018-04-16T05:02:35.348Z,30.87
2018-04-16T05:05:02.408Z,36.60
2018-04-16T05:07:29.288Z,34.80
2018-04-16T05:09:56.162Z,32.17
2018-04-16T05:12:23.927Z,31.83
2018-04-16T05:14:51.573Z,38.63
2018-04-16T05:17:18.453Z,32.73
2018-04-16T05:19:45.412Z,29.77
2018-04-16T05:22:12.303Z,30.97
2018-04-16T05:24:39.180Z,31.47
2018-04-16T05:27:06.931Z,32.23
2018-04-16T05:29:34.602Z,30.83
2018-04-16T05:32:02.301Z,31.17
2018-04-16T05:34:29.221Z,31.33
2018-04-16T05:36:56.137Z,31.40
2018-04-16T05:39:23.032Z,31.67
2018-04-16T05:41:50.392Z,30.07
2018-04-16T05:44:17.275Z,28.90
2018-04-16T05:46:44.178Z,28.33
2018-04-16T05:49:11.201Z,30.20
2018-04-16T05:51:38.860Z,30.20
2018-04-16T05:54:06.875Z,27.77
2018-04-16T05:56:33.804Z,29.57
2018-04-16T05:59:00.676Z,27.17
2018-04-16T06:01:27.552Z,29.27
2018-04-16T06:03:54.569Z,27.87
2018-04-16T06:06:21.440Z,28.07
2018-04-16T06:08:48.353Z,28.97
2018-04-16T06:11:15.364Z,28.50
2018-04-16T06:13:42.255Z,28.63
2018-04-16T06:16:09.220Z,28.67
2018-04-16T06:18:36.195Z,28.13
2018-04-16T06:21:03.825Z,28.47
2018-04-16T06:23:30.713Z,27.60
2018-04-16T06:25:57.675Z,26.90
2018-04-16T06:28:24.570Z,27.80
2018-04-16T06:30:51.508Z,27.37
2018-04-16T06:33:18.631Z,29.27
2018-04-16T06:35:45.562Z,28.47
2018-04-16T06:38:12.440Z,28.70
2018-04-16T06:40:39.449Z,27.70
2018-04-16T06:43:06.388Z,28.53
2018-04-16T06:45:33.310Z,27.63
2018-04-16T06:48:01.025Z,28.03
2018-04-16T06:50:27.906Z,28.20
2018-04-16T06:52:54.789Z,29.60
2018-04-16T06:55:21.920Z,30.40
2018-04-16T06:57:49.543Z,28.17
2018-04-16T07:00:16.456Z,27.13
2018-04-16T07:02:43.584Z,27.77
2018-04-16T07:05:11.280Z,26.83
2018-04-16T07:07:38.160Z,28.37
2018-04-16T07:10:05.305Z,28.43
2018-04-16T07:12:32.175Z,27.97
2018-04-16T07:14:59.811Z,28.87
2018-04-16T07:17:26.888Z,27.37
2018-04-16T07:19:53.862Z,30.83
2018-04-16T07:22:20.765Z,29.17
2018-04-16T07:24:47.942Z,27.93
2018-04-16T07:27:15.650Z,29.40
2018-04-16T07:29:42.539Z,29.17
2018-04-16T07:32:09.573Z,27.10
2018-04-16T07:34:36.548Z,27.30
2018-04-16T07:37:03.481Z,27.70
2018-04-16T07:39:30.496Z,27.90
2018-04-16T07:41:57.368Z,28.27
2018-04-16T07:44:24.251Z,26.93
2018-04-16T07:46:51.165Z,27.43
2018-04-16T07:49:18.092Z,28.27
2018-04-16T07:51:44.959Z,26.57
2018-04-16T07:54:12.025Z,27.93
2018-04-16T07:56:39.640Z,27.80
2018-04-16T07:59:07.300Z,28.60
2018-04-16T08:01:34.368Z,29.37
2018-04-16T08:04:01.270Z,27.57
2018-04-16T08:06:28.145Z,27.33
2018-04-16T08:08:55.170Z,26.27
2018-04-16T08:11:22.140Z,27.67
2018-04-16T08:13:49.028Z,25.97
2018-04-16T08:16:16.884Z,27.67
2018-04-16T08:18:43.763Z,28.23
2018-04-16T08:21:10.628Z,27.37
2018-04-16T08:23:37.617Z,26.77
2018-04-16T08:26:04.502Z,26.67
2018-04-16T08:28:31.460Z,27.17
2018-04-16T08:30:58.478Z,28.10
2018-04-16T08:33:25.420Z,26.83
2018-04-16T08:35:53.133Z,29.50
2018-04-16T08:38:20.968Z,27.53
2018-04-16T08:40:47.893Z,26.23
2018-04-16T08:43:15.507Z,25.37
2018-04-16T08:45:42.653Z,27.80
2018-04-16T08:48:09.595Z,26.80
2018-04-16T08:50:37.274Z,27.13
2018-04-16T08:53:04.408Z,26.43
2018-04-16T08:55:31.314Z,27.33
2018-04-16T08:57:58.946Z,26.80
2018-04-16T09:00:26.069Z,25.90
2018-04-16T09:02:52.949Z,28.53
2018-04-16T09:05:19.940Z,27.47
2018-04-16T09:07:46.856Z,28.10
2018-04-16T09:10:13.743Z,26.77
2018-04-16T09:12:40.628Z,25.63
2018-04-16T09:15:07.629Z,24.80
2018-04-16T09:17:34.633Z,25.67
2018-04-16T09:20:01.529Z,23.97
2018-04-16T09:22:28.477Z,20.67
2018-04-16T09:24:55.352Z,21.20
2018-04-16T09:27:22.298Z,21.47
2018-04-16T09:29:49.585Z,22.33
2018-04-16T09:32:16.448Z,23.33
2018-04-16T09:34:44.073Z,22.37
2018-04-16T09:37:11.193Z,23.03
2018-04-16T09:39:38.099Z,24.03
2018-04-16T09:42:05.773Z,23.93
2018-04-16T09:44:32.896Z,23.37
2018-04-16T09:46:59.768Z,23.50
2018-04-16T09:49:26.741Z,23.37
2018-04-16T09:51:53.840Z,23.33
2018-04-16T09:54:20.786Z,20.57
2018-04-16T09:56:47.723Z,20.40
2018-04-16T09:59:14.700Z,23.50
2018-04-16T10:01:42.352Z,24.30
2018-04-16T10:04:09.973Z,23.33
2018-04-16T10:06:37.852Z,24.10
2018-04-16T10:09:05.843Z,25.67
2018-04-16T10:11:32.804Z,24.23
2018-04-16T10:14:00.632Z,23.43
2018-04-16T10:16:27.514Z,25.97
2018-04-16T10:18:55.141Z,24.13
2018-04-16T10:21:22.168Z,23.87
2018-04-16T10:23:49.044Z,22.20
2018-04-16T10:26:15.922Z,22.70
2018-04-16T10:28:43.597Z,22.77
2018-04-16T10:31:10.603Z,21.97
2018-04-16T10:33:37.920Z,22.97
2018-04-16T10:36:05.257Z,25.77
2018-04-16T10:38:32.193Z,22.90
2018-04-16T10:40:59.153Z,22.93
2018-04-16T10:43:26.817Z,25.27
2018-04-16T10:45:53.702Z,26.03
2018-04-16T10:48:20.584Z,25.30
2018-04-16T10:50:48.294Z,25.20
2018-04-16T10:53:15.907Z,26.13
2018-04-16T10:55:43.538Z,25.73
2018-04-16T10:58:11.437Z,26.30
2018-04-16T11:00:39.057Z,26.47
2018-04-16T11:03:05.996Z,25.00
2018-04-16T11:05:33.852Z,24.97
2018-04-16T11:08:00.720Z,24.73
2018-04-16T11:10:27.700Z,22.67
2018-04-16T11:12:54.702Z,22.30
2018-04-16T11:15:21.585Z,23.80
2018-04-16T11:17:48.505Z,25.57
2018-04-16T11:20:15.527Z,23.27
2018-04-16T11:22:42.450Z,22.20
2018-04-16T11:25:09.588Z,21.80
2018-04-16T11:27:37.363Z,19.77
2018-04-16T11:30:05.084Z,17.90
2018-04-16T11:32:32.070Z,17.17
2018-04-16T11:34:59.084Z,18.03
2018-04-16T11:37:26.860Z,18.07
2018-04-16T11:39:53.752Z,16.17
2018-04-16T11:42:20.734Z,14.93
2018-04-16T11:44:52.529Z,15.37
2018-04-16T11:47:19.395Z,14.87
2018-04-16T11:49:47.357Z,15.23
2018-04-16T11:52:14.341Z,15.07
2018-04-16T11:54:41.348Z,14.70
2018-04-16T11:57:08.345Z,15.30
2018-04-16T11:59:35.234Z,13.93
2018-04-16T12:02:02.124Z,11.80
2018-04-16T12:04:29.312Z,13.53
2018-04-16T12:06:56.127Z,12.90
2018-04-16T12:09:22.992Z,14.83
2018-04-16T12:11:50.690Z,15.43
2018-04-16T12:14:17.610Z,14.47
2018-04-16T12:16:44.485Z,14.17
2018-04-16T12:19:12.176Z,15.33
2018-04-16T12:21:39.058Z,15.47
2018-04-16T12:24:05.984Z,16.27
2018-04-16T12:26:32.999Z,17.80
2018-04-16T12:29:00.610Z,19.90
2018-04-16T12:31:27.521Z,19.73
2018-04-16T12:33:54.636Z,19.80
2018-04-16T12:36:21.508Z,18.87
2018-04-16T12:38:48.420Z,15.83
2018-04-16T12:41:15.435Z,14.57
2018-04-16T12:43:42.313Z,14.67
2018-04-16T12:46:09.237Z,13.63
2018-04-16T12:48:36.253Z,14.23
2018-04-16T12:51:03.138Z,13.73
2018-04-16T12:53:30.018Z,14.40
2018-04-16T12:55:57.896Z,15.40
2018-04-16T12:58:25.574Z,15.17
2018-04-16T13:00:52.469Z,14.40
2018-04-16T13:03:19.485Z,14.77
2018-04-16T13:05:46.369Z,19.60
2018-04-16T13:08:13.348Z,22.07
2018-04-16T13:10:40.453Z,25.17
2018-04-16T13:13:07.347Z,24.00
2018-04-16T13:15:34.250Z,24.10
2018-04-16T13:18:01.180Z,26.30
2018-04-16T13:20:28.080Z,22.47
2018-04-16T13:22:54.958Z,23.97
2018-04-16T13:25:21.976Z,23.47
2018-04-16T13:27:48.925Z,20.63
2018-04-16T13:30:15.799Z,23.00
2018-04-16T13:32:42.811Z,17.03
2018-04-16T13:35:10.495Z,17.63
2018-04-16T13:37:37.416Z,15.57
2018-04-16T13:40:05.446Z,15.73
2018-04-16T13:42:32.317Z,15.97
2018-04-16T13:44:59.226Z,15.03
2018-04-16T13:47:26.476Z,14.03
2018-04-16T13:49:53.355Z,13.97
2018-04-16T13:52:20.243Z,14.73
2018-04-16T13:54:47.201Z,14.57
2018-04-16T13:57:14.070Z,15.03
2018-04-16T13:59:40.969Z,16.40
2018-04-16T14:02:07.903Z,16.10
2018-04-16T14:04:35.524Z,17.00
2018-04-16T14:07:02.398Z,15.93
2018-04-16T14:09:29.405Z,18.00
2018-04-16T14:11:56.424Z,16.10
2018-04-16T14:14:23.483Z,14.40
2018-04-16T14:16:50.457Z,15.23
2018-04-16T14:19:17.345Z,17.47
2018-04-16T14:21:44.312Z,17.17
2018-04-16T14:24:11.413Z,16.63
2018-04-16T14:26:38.349Z,17.50
2018-04-16T14:29:05.237Z,17.10
2018-04-16T14:31:33.052Z,19.87
2018-04-16T14:34:00.007Z,16.57
2018-04-16T14:36:26.961Z,17.43
2018-04-16T14:38:54.019Z,16.70
2018-04-16T14:41:20.885Z,17.43
2018-04-16T14:43:48.492Z,19.60
2018-04-16T14:46:15.416Z,18.33
2018-04-16T14:48:42.352Z,17.63
2018-04-16T14:51:09.960Z,20.23
2018-04-16T14:53:37.144Z,19.57
2018-04-16T14:56:04.034Z,18.70
2018-04-16T14:58:30.941Z,17.30
2018-04-16T15:00:58.796Z,19.23
2018-04-16T15:03:25.677Z,19.13
2018-04-16T15:05:52.573Z,20.17
2018-04-16T15:08:19.563Z,21.77
2018-04-16T15:10:47.184Z,21.37
2018-04-16T15:13:14.055Z,20.63
2018-04-16T15:15:42.183Z,20.70
2018-04-16T15:18:09.950Z,20.40
2018-04-16T15:20:36.863Z,19.70
2018-04-16T15:23:03.935Z,21.17
2018-04-16T15:25:30.802Z,20.83
2018-04-16T15:27:57.675Z,19.40
2018-04-16T15:30:24.597Z,21.63
2018-04-16T15:32:51.525Z,19.83
2018-04-16T15:35:18.411Z,18.27
2018-04-16T15:37:45.626Z,17.90
2018-04-16T15:40:12.509Z,16.90
2018-04-16T15:42:39.379Z,17.70
2018-04-16T15:45:07.040Z,15.83
2018-04-16T15:47:33.992Z,15.40
2018-04-16T15:50:00.926Z,15.40
2018-04-16T15:52:28.677Z,13.67
2018-04-16T15:54:56.328Z,13.63
2018-04-16T15:57:23.200Z,14.53
2018-04-16T15:59:51.048Z,13.03
2018-04-16T16:02:17.947Z,10.90
2018-04-16T16:04:44.868Z,8.43
2018-04-16T16:07:11.785Z,9.50
2018-04-16T16:09:39.465Z,10.37
2018-04-16T16:12:07.087Z,10.70
2018-04-16T16:14:34.152Z,8.43
2018-04-16T16:17:01.018Z,8.23
2018-04-16T16:19:28.625Z,14.10
2018-04-16T16:21:55.539Z,23.83
2018-04-16T16:24:22.411Z,11.90
2018-04-16T16:26:49.279Z,11.73
2018-04-16T16:29:16.204Z,14.87
2018-04-16T16:31:43.961Z,13.03
2018-04-16T16:34:10.828Z,13.43
2018-04-16T16:36:38.482Z,12.47
2018-04-16T16:39:05.493Z,11.87
2018-04-16T16:41:33.147Z,11.47
2018-04-16T16:44:00.957Z,11.23
2018-04-16T16:46:27.888Z,12.87
2018-04-16T16:48:54.764Z,13.93
2018-04-16T16:51:21.850Z,22.33
2018-04-16T16:53:48.717Z,24.67
2018-04-16T16:56:15.610Z,11.87
2018-04-16T16:58:42.676Z,11.10
2018-04-16T17:01:10.316Z,12.27
2018-04-16T17:03:37.260Z,11.80
2018-04-16T17:06:04.404Z,11.40
2018-04-16T17:08:31.281Z,9.53
2018-04-16T17:10:58.160Z,8.93
2018-04-16T17:13:25.105Z,10.03
2018-04-16T17:15:52.005Z,10.40
2018-04-16T17:18:18.995Z,10.13
2018-04-16T17:20:45.977Z,10.37
2018-04-16T17:23:12.843Z,8.90
2018-04-16T17:25:40.529Z,10.07
2018-04-16T17:28:07.686Z,10.27
2018-04-16T17:30:35.303Z,9.80
2018-04-16T17:33:02.260Z,9.67
2018-04-16T17:35:29.223Z,10.63
2018-04-16T17:37:56.141Z,9.40
2018-04-16T17:40:23.080Z,8.87
2018-04-16T17:42:50.303Z,8.63
2018-04-16T17:45:17.219Z,7.17
2018-04-16T17:47:44.153Z,7.77
2018-04-16T17:50:11.226Z,7.20
2018-04-16T17:52:38.853Z,6.47
2018-04-16T17:55:05.742Z,6.80
2018-04-16T17:57:33.417Z,6.87
2018-04-16T18:00:00.302Z,7.40
2018-04-16T18:02:27.182Z,7.47
2018-04-16T18:04:54.335Z,6.27
2018-04-16T18:07:21.201Z,7.27
2018-04-16T18:09:48.990Z,7.10
2018-04-16T18:12:16.112Z,10.10
2018-04-16T18:14:43.846Z,7.40
2018-04-16T18:17:10.696Z,6.47
2018-04-16T18:19:37.861Z,6.13
2018-04-16T18:22:04.734Z,5.73
2018-04-16T18:24:31.601Z,5.53
2018-04-16T18:26:58.703Z,6.10
2018-04-16T18:29:26.376Z,6.20
2018-04-16T18:31:53.980Z,5.47
2018-04-16T18:34:21.076Z,6.77
2018-04-16T18:36:47.992Z,6.60
2018-04-16T18:39:14.927Z,5.57
2018-04-16T18:41:41.864Z,5.53
2018-04-16T18:44:08.839Z,6.83
2018-04-16T18:46:35.798Z,6.20
2018-04-16T18:49:02.921Z,6.13
2018-04-16T18:51:29.830Z,6.60
2018-04-16T18:53:56.757Z,6.63
2018-04-16T18:56:23.902Z,6.30
2018-04-16T18:58:50.822Z,6.17
2018-04-16T19:01:17.726Z,7.93
2018-04-16T19:03:44.779Z,6.43
2018-04-16T19:06:11.655Z,6.50
2018-04-16T19:08:38.533Z,5.93
2018-04-16T19:11:05.749Z,6.47
2018-04-16T19:13:32.658Z,6.70
2018-04-16T19:15:59.646Z,6.90
2018-04-16T19:18:26.682Z,6.63
2018-04-16T19:20:59.585Z,7.53
2018-04-16T19:23:27.235Z,6.20
2018-04-16T19:25:54.133Z,7.67
2018-04-16T19:28:21.770Z,6.13
2018-04-16T19:30:48.834Z,7.27
2018-04-16T19:33:21.850Z,7.83
2018-04-16T19:35:48.909Z,7.10
2018-04-16T19:38:16.085Z,6.70
2018-04-16T19:40:42.982Z,6.37
2018-04-16T19:43:10.594Z,7.17
2018-04-16T19:45:37.633Z,6.93
2018-04-16T19:48:04.553Z,7.27
2018-04-16T19:50:31.424Z,6.10
2018-04-16T19:52:58.472Z,7.17
2018-04-16T19:55:25.436Z,6.40
2018-04-16T19:57:58.401Z,6.40
2018-04-16T20:00:25.515Z,6.93
2018-04-16T20:02:59.296Z,7.43
2018-04-16T20:05:26.347Z,6.13
2018-04-16T20:07:53.230Z,5.80
2018-04-16T20:10:20.108Z,7.40
2018-04-16T20:12:47.210Z,6.43
2018-04-16T20:15:14.826Z,6.47
2018-04-16T20:17:41.707Z,6.70
2018-04-16T20:20:09.524Z,6.57
2018-04-16T20:22:36.405Z,7.47
2018-04-16T20:25:03.317Z,7.13
2018-04-16T20:27:30.335Z,6.07
2018-04-16T20:29:57.977Z,6.80
2018-04-16T20:32:24.852Z,6.73
2018-04-16T20:34:51.985Z,6.90
2018-04-16T20:37:19.639Z,7.87
2018-04-16T20:39:47.259Z,6.97
2018-04-16T20:42:14.594Z,7.83
2018-04-16T20:44:47.430Z,8.10
2018-04-16T20:47:14.408Z,6.90
2018-04-16T20:49:41.536Z,7.57
2018-04-16T20:52:08.409Z,7.33
2018-04-16T20:54:35.302Z,7.20
2018-04-16T20:57:02.353Z,7.57
2018-04-16T20:59:29.263Z,7.37
2018-04-16T21:01:56.130Z,6.77
2018-04-16T21:04:23.145Z,6.23
2018-04-16T21:06:50.072Z,6.97
2018-04-16T21:09:17.006Z,8.33
2018-04-16T21:11:44.117Z,6.90
2018-04-16T21:14:10.983Z,7.50
2018-04-16T21:16:37.908Z,7.80
2018-04-16T21:19:05.057Z,6.70
2018-04-16T21:21:32.028Z,7.50
2018-04-16T21:23:59.169Z,7.67
2018-04-16T21:26:27.013Z,7.20
2018-04-16T21:28:53.905Z,7.20
2018-04-16T21:31:20.833Z,7.57
2018-04-16T21:33:47.908Z,7.70
2018-04-16T21:36:15.585Z,7.60
2018-04-16T21:38:42.575Z,7.20
2018-04-16T21:41:10.430Z,8.50
2018-04-16T21:43:37.311Z,7.03
2018-04-16T21:46:04.292Z,6.67
2018-04-16T21:48:32.078Z,7.27
2018-04-16T21:50:59.055Z,7.27
2018-04-16T21:53:26.008Z,7.87
2018-04-16T21:55:53.072Z,7.50
2018-04-16T21:58:19.948Z,7.97
2018-04-16T22:00:47.621Z,7.73
2018-04-16T22:03:14.748Z,7.37
2018-04-16T22:05:41.678Z,8.03
2018-04-16T22:08:08.552Z,8.00
2018-04-16T22:10:36.342Z,7.57
2018-04-16T22:13:03.286Z,7.23
2018-04-16T22:15:30.161Z,7.53
2018-04-16T22:17:57.248Z,8.30
2018-04-16T22:20:24.860Z,8.20
2018-04-16T22:22:51.745Z,9.90
2018-04-16T22:25:18.763Z,7.00
2018-04-16T22:27:45.635Z,9.13
2018-04-16T22:30:12.556Z,8.73
2018-04-16T22:32:39.465Z,8.43
2018-04-16T22:35:06.343Z,8.20
2018-04-16T22:37:33.276Z,7.80
2018-04-16T22:40:00.372Z,8.83
2018-04-16T22:42:27.263Z,8.33
2018-04-16T22:44:54.157Z,7.70
2018-04-16T22:47:21.185Z,7.97
2018-04-16T22:49:48.061Z,7.80
2018-04-16T22:52:15.796Z,7.23
2018-04-16T22:54:42.708Z,7.87
2018-04-16T22:57:09.588Z,7.40
2018-04-16T22:59:36.452Z,7.67
2018-04-16T23:02:03.677Z,7.73
2018-04-16T23:04:30.904Z,7.87
2018-04-16T23:06:57.849Z,8.67
2018-04-16T23:09:24.865Z,8.53
2018-04-16T23:11:51.787Z,7.87
2018-04-16T23:14:18.668Z,7.23
2018-04-16T23:16:46.400Z,7.83
2018-04-16T23:19:13.332Z,7.47
2018-04-16T23:21:40.207Z,7.00
2018-04-16T23:24:08.086Z,6.97
2018-04-16T23:26:35.680Z,6.67
2018-04-16T23:29:02.563Z,6.60
2018-04-16T23:31:29.628Z,6.40
2018-04-16T23:33:56.511Z,6.77
2018-04-16T23:36:23.434Z,7.40
2018-04-16T23:38:50.736Z,7.23
2018-04-16T23:41:17.614Z,7.43
2018-04-16T23:43:44.493Z,6.80
2018-04-16T23:46:11.544Z,6.97
2018-04-16T23:48:38.504Z,7.47
2018-04-16T23:51:05.390Z,6.30
2018-04-16T23:53:32.357Z,6.47
2018-04-16T23:55:59.228Z,7.13
2018-04-16T23:58:26.164Z,7.30
